createdAt,value
2018-06-21T00:00:47.999Z,7.43
2018-06-21T00:03:16.243Z,7.20
2018-06-21T00:05:44.447Z,6.70
2018-06-21T00:08:12.664Z,7.97
2018-06-21T00:10:40.854Z,7.90
2018-06-21T00:13:09.072Z,7.83
2018-06-21T00:15:37.263Z,7.53
2018-06-21T00:18:05.490Z,8.47
2018-06-21T00:20:33.719Z,8.50
2018-06-21T00:23:01.917Z,7.03
2018-06-21T00:25:30.154Z,7.93
2018-06-21T00:27:58.382Z,9.07
2018-06-21T00:30:26.607Z,8.10
2018-06-21T00:32:54.861Z,8.40
2018-06-21T00:35:23.010Z,8.40
2018-06-21T00:37:51.227Z,8.57
2018-06-21T00:40:19.440Z,7.90
2018-06-21T00:42:47.631Z,7.97
2018-06-21T00:45:15.913Z,7.70
2018-06-21T00:47:44.112Z,8.00
2018-06-21T00:50:12.305Z,8.20
2018-06-21T00:52:40.531Z,8.20
2018-06-21T00:55:08.721Z,8.70
2018-06-21T00:57:37.006Z,8.83
2018-06-21T01:00:05.218Z,8.30
2018-06-21T01:02:33.426Z,8.57
2018-06-21T01:05:01.622Z,9.20
2018-06-21T01:07:29.893Z,9.57
2018-06-21T01:09:58.094Z,9.50
2018-06-21T01:12:26.286Z,8.90
2018-06-21T01:14:55.047Z,7.90
2018-06-21T01:17:23.258Z,8.30
2018-06-21T01:19:51.458Z,9.30
2018-06-21T01:22:19.672Z,10.00
2018-06-21T01:24:47.909Z,9.43
2018-06-21T01:27:16.136Z,8.33
2018-06-21T01:29:44.380Z,8.90
2018-06-21T01:32:12.575Z,8.97
2018-06-21T01:34:40.805Z,8.90
2018-06-21T01:37:08.984Z,9.50
2018-06-21T01:39:37.164Z,8.73
2018-06-21T01:42:05.510Z,8.70
2018-06-21T01:44:33.713Z,8.50
2018-06-21T01:47:01.917Z,9.13
2018-06-21T01:49:30.143Z,9.40
2018-06-21T01:51:58.641Z,8.70
2018-06-21T01:54:26.859Z,8.70
2018-06-21T01:56:55.087Z,9.60
2018-06-21T01:59:23.274Z,8.57
2018-06-21T02:01:51.524Z,8.70
2018-06-21T02:04:19.738Z,10.50
2018-06-21T02:06:47.971Z,8.40
2018-06-21T02:09:16.162Z,9.20
2018-06-21T02:11:44.365Z,9.33
2018-06-21T02:14:12.666Z,9.77
2018-06-21T02:16:40.633Z,9.77
2018-06-21T02:19:08.876Z,8.93
2018-06-21T02:21:37.098Z,9.80
2018-06-21T02:24:12.152Z,9.73
2018-06-21T02:26:40.390Z,8.60
2018-06-21T02:29:08.603Z,9.20
2018-06-21T02:31:37.643Z,9.83
2018-06-21T02:34:06.130Z,9.97
2018-06-21T02:36:34.355Z,10.03
2018-06-21T02:39:02.648Z,10.50
2018-06-21T02:41:30.878Z,10.70
2018-06-21T02:43:59.102Z,10.60
2018-06-21T02:46:27.289Z,9.90
2018-06-21T02:48:55.487Z,9.90
2018-06-21T02:51:23.701Z,10.73
2018-06-21T02:53:51.910Z,10.20
2018-06-21T02:56:20.123Z,9.73
2018-06-21T02:58:48.333Z,9.73
2018-06-21T03:01:16.277Z,9.63
2018-06-21T03:03:44.502Z,10.03
2018-06-21T03:06:12.906Z,9.80
2018-06-21T03:08:41.158Z,10.90
2018-06-21T03:11:09.362Z,9.90
2018-06-21T03:13:37.566Z,9.83
2018-06-21T03:16:05.771Z,9.00
2018-06-21T03:18:33.960Z,8.77
2018-06-21T03:21:02.158Z,11.30
2018-06-21T03:23:30.488Z,9.70
2018-06-21T03:25:58.701Z,10.50
2018-06-21T03:28:26.889Z,9.97
2018-06-21T03:30:55.086Z,11.20
2018-06-21T03:33:23.327Z,9.47
2018-06-21T03:35:51.597Z,10.90
2018-06-21T03:38:19.855Z,11.00
2018-06-21T03:40:48.082Z,11.00
2018-06-21T03:43:16.049Z,10.70
2018-06-21T03:45:44.228Z,11.43
2018-06-21T03:48:12.463Z,9.93
2018-06-21T03:50:40.654Z,11.10
2018-06-21T03:53:08.890Z,10.83
2018-06-21T03:55:37.093Z,10.77
2018-06-21T03:58:05.458Z,9.80
2018-06-21T04:00:33.675Z,10.33
2018-06-21T04:03:01.932Z,9.90
2018-06-21T04:05:30.215Z,11.17
2018-06-21T04:07:58.477Z,10.67
2018-06-21T04:10:26.668Z,10.50
2018-06-21T04:12:54.858Z,10.50
2018-06-21T04:15:23.077Z,11.03
2018-06-21T04:17:51.302Z,11.23
2018-06-21T04:20:19.490Z,11.10
2018-06-21T04:22:47.719Z,11.00
2018-06-21T04:25:15.929Z,10.47
2018-06-21T04:27:44.151Z,11.27
2018-06-21T04:30:12.390Z,11.83
2018-06-21T04:32:40.605Z,11.20
2018-06-21T04:35:08.819Z,11.50
2018-06-21T04:37:37.098Z,10.70
2018-06-21T04:40:06.661Z,11.30
2018-06-21T04:42:35.039Z,11.90
2018-06-21T04:45:03.245Z,11.50
2018-06-21T04:47:31.520Z,10.67
2018-06-21T04:49:59.758Z,14.13
2018-06-21T04:52:27.984Z,12.00
2018-06-21T04:54:56.269Z,10.77
2018-06-21T04:57:24.523Z,10.40
2018-06-21T04:59:52.781Z,9.77
2018-06-21T05:02:20.972Z,9.47
2018-06-21T05:04:49.231Z,10.40
2018-06-21T05:07:17.506Z,9.90
2018-06-21T05:09:45.703Z,9.50
2018-06-21T05:12:13.902Z,9.83
2018-06-21T05:14:42.157Z,9.60
2018-06-21T05:17:10.347Z,9.10
2018-06-21T05:19:38.631Z,10.67
2018-06-21T05:22:06.913Z,9.90
2018-06-21T05:24:35.128Z,9.83
2018-06-21T05:27:03.359Z,9.60
2018-06-21T05:29:31.570Z,9.60
2018-06-21T05:31:59.829Z,9.33
2018-06-21T05:34:28.069Z,9.50
2018-06-21T05:36:56.262Z,9.10
2018-06-21T05:39:24.486Z,9.90
2018-06-21T05:41:52.731Z,10.27
2018-06-21T05:44:21.042Z,10.80
2018-06-21T05:46:49.211Z,10.37
2018-06-21T05:49:17.426Z,9.37
2018-06-21T05:51:45.677Z,11.07
2018-06-21T05:54:13.895Z,10.20
2018-06-21T05:56:42.284Z,9.23
2018-06-21T05:59:10.437Z,8.13
2018-06-21T06:01:38.774Z,9.60
2018-06-21T06:04:07.051Z,8.47
2018-06-21T06:06:35.263Z,8.37
2018-06-21T06:09:04.578Z,7.17
2018-06-21T06:11:32.788Z,8.00
2018-06-21T06:14:01.038Z,7.10
2018-06-21T06:16:29.255Z,6.50
2018-06-21T06:18:57.450Z,6.60
2018-06-21T06:21:25.670Z,6.80
2018-06-21T06:23:53.919Z,7.17
2018-06-21T06:26:22.140Z,6.40
2018-06-21T06:28:50.372Z,5.57
2018-06-21T06:31:18.566Z,5.83
2018-06-21T06:33:47.131Z,6.07
2018-06-21T06:36:15.321Z,5.10
2018-06-21T06:38:43.503Z,5.70
2018-06-21T06:41:11.741Z,5.50
2018-06-21T06:43:39.950Z,5.87
2018-06-21T06:46:07.969Z,5.97
2018-06-21T06:48:36.190Z,5.37
2018-06-21T06:51:04.402Z,5.70
2018-06-21T06:53:32.658Z,4.93
2018-06-21T06:56:00.895Z,5.33
2018-06-21T06:58:29.091Z,5.60
2018-06-21T07:00:58.481Z,5.40
2018-06-21T07:03:26.685Z,5.90
2018-06-21T07:05:54.965Z,5.50
2018-06-21T07:08:23.519Z,5.10
2018-06-21T07:10:51.726Z,5.20
2018-06-21T07:13:19.943Z,4.30
2018-06-21T07:15:48.245Z,5.10
2018-06-21T07:18:16.438Z,4.57
2018-06-21T07:20:44.626Z,6.00
2018-06-21T07:23:12.866Z,4.37
2018-06-21T07:25:41.059Z,5.17
2018-06-21T07:28:09.246Z,4.70
2018-06-21T07:30:37.471Z,4.90
2018-06-21T07:33:05.716Z,5.63
2018-06-21T07:35:34.039Z,4.23
2018-06-21T07:38:02.211Z,5.20
2018-06-21T07:40:30.482Z,5.00
2018-06-21T07:42:58.724Z,5.20
2018-06-21T07:45:26.931Z,4.50
2018-06-21T07:47:55.582Z,5.10
2018-06-21T07:50:23.786Z,4.80
2018-06-21T07:52:51.970Z,4.67
2018-06-21T07:55:20.161Z,5.40
2018-06-21T07:57:48.342Z,5.07
2018-06-21T08:00:16.514Z,4.87
2018-06-21T08:02:44.704Z,4.80
2018-06-21T08:05:12.924Z,5.90
2018-06-21T08:07:41.059Z,5.00
2018-06-21T08:10:09.235Z,4.67
2018-06-21T08:12:37.453Z,4.90
2018-06-21T08:15:05.684Z,5.47
2018-06-21T08:17:34.121Z,5.07
2018-06-21T08:20:02.338Z,4.50
2018-06-21T08:22:30.569Z,5.57
2018-06-21T08:24:58.754Z,4.90
2018-06-21T08:27:26.961Z,5.23
2018-06-21T08:29:55.331Z,5.90
2018-06-21T08:32:23.485Z,5.43
2018-06-21T08:34:51.685Z,5.23
2018-06-21T08:37:19.897Z,5.00
2018-06-21T08:39:48.192Z,4.87
2018-06-21T08:42:16.415Z,5.27
2018-06-21T08:44:44.610Z,5.83
2018-06-21T08:47:12.802Z,5.20
2018-06-21T08:49:41.043Z,5.57
2018-06-21T08:52:09.239Z,5.90
2018-06-21T08:54:37.426Z,5.57
2018-06-21T08:57:05.666Z,5.20
2018-06-21T08:59:33.902Z,4.67
2018-06-21T09:02:02.170Z,5.67
2018-06-21T09:04:30.454Z,5.10
2018-06-21T09:06:59.159Z,4.30
2018-06-21T09:09:27.378Z,5.13
2018-06-21T09:11:55.579Z,4.80
2018-06-21T09:14:23.837Z,4.80
2018-06-21T09:16:52.209Z,4.63
2018-06-21T09:19:22.403Z,4.80
2018-06-21T09:21:50.611Z,5.07
2018-06-21T09:24:18.790Z,4.93
2018-06-21T09:26:46.990Z,4.80
2018-06-21T09:29:15.212Z,5.30
2018-06-21T09:31:43.436Z,5.30
2018-06-21T09:34:11.661Z,5.60
2018-06-21T09:36:41.884Z,4.30
2018-06-21T09:39:16.266Z,4.90
2018-06-21T09:41:50.333Z,6.53
2018-06-21T09:44:23.878Z,4.47
2018-06-21T09:46:57.431Z,4.37
2018-06-21T09:49:28.989Z,5.60
2018-06-21T09:51:58.177Z,4.60
2018-06-21T09:54:26.471Z,4.70
2018-06-21T09:56:54.690Z,5.00
2018-06-21T09:59:22.999Z,4.70
2018-06-21T10:01:51.277Z,4.80
2018-06-21T10:04:19.482Z,4.87
2018-06-21T10:06:47.713Z,5.00
2018-06-21T10:09:15.901Z,5.40
2018-06-21T10:11:44.124Z,5.10
2018-06-21T10:14:12.356Z,4.50
2018-06-21T10:16:40.569Z,4.57
2018-06-21T10:19:08.827Z,5.17
2018-06-21T10:21:37.147Z,5.03
2018-06-21T10:24:05.357Z,5.03
2018-06-21T10:26:33.838Z,4.43
2018-06-21T10:29:02.023Z,5.10
2018-06-21T10:31:30.229Z,4.50
2018-06-21T10:33:58.471Z,5.07
2018-06-21T10:36:26.753Z,5.63
2018-06-21T10:38:54.951Z,5.13
2018-06-21T10:41:23.192Z,4.63
2018-06-21T10:43:51.409Z,5.30
2018-06-21T10:46:19.605Z,6.50
2018-06-21T10:48:47.819Z,5.37
2018-06-21T10:51:16.095Z,5.37
2018-06-21T10:53:44.337Z,8.07
2018-06-21T10:56:12.598Z,5.90
2018-06-21T10:58:40.805Z,5.90
2018-06-21T11:01:09.034Z,5.57
2018-06-21T11:03:37.441Z,5.93
2018-06-21T11:06:06.028Z,5.97
2018-06-21T11:08:34.360Z,6.03
2018-06-21T11:11:02.566Z,6.37
2018-06-21T11:13:30.773Z,7.10
2018-06-21T11:15:59.001Z,6.40
2018-06-21T11:18:27.310Z,6.50
2018-06-21T11:20:55.520Z,8.27
2018-06-21T11:23:23.807Z,6.43
2018-06-21T11:25:52.031Z,5.73
2018-06-21T11:28:20.350Z,6.00
2018-06-21T11:30:48.706Z,6.10
2018-06-21T11:33:16.910Z,5.40
2018-06-21T11:35:46.155Z,4.63
2018-06-21T11:38:14.402Z,5.30
2018-06-21T11:40:42.582Z,4.13
2018-06-21T11:43:10.834Z,4.10
2018-06-21T11:45:39.047Z,4.50
2018-06-21T11:48:07.312Z,4.20
2018-06-21T11:50:35.495Z,4.07
2018-06-21T11:53:03.689Z,3.53
2018-06-21T11:55:31.961Z,3.80
2018-06-21T11:58:00.189Z,3.80
2018-06-21T12:00:28.402Z,3.90
2018-06-21T12:02:56.606Z,3.90
2018-06-21T12:05:24.871Z,3.53
2018-06-21T12:07:53.132Z,4.10
2018-06-21T12:10:21.419Z,6.27
2018-06-21T12:12:49.637Z,3.97
2018-06-21T12:15:17.858Z,3.77
2018-06-21T12:17:46.059Z,3.37
2018-06-21T12:20:14.268Z,3.80
2018-06-21T12:22:42.469Z,3.40
2018-06-21T12:25:10.684Z,3.90
2018-06-21T12:27:38.938Z,3.50
2018-06-21T12:30:07.150Z,3.73
2018-06-21T12:32:35.489Z,3.67
2018-06-21T12:35:03.789Z,3.67
2018-06-21T12:37:32.000Z,3.93
2018-06-21T12:39:59.982Z,4.07
2018-06-21T12:42:28.209Z,3.57
2018-06-21T12:44:56.442Z,3.67
2018-06-21T12:47:24.989Z,3.30
2018-06-21T12:49:53.190Z,4.10
2018-06-21T12:52:21.443Z,3.53
2018-06-21T12:54:49.677Z,3.53
2018-06-21T12:57:17.909Z,4.10
2018-06-21T12:59:46.098Z,4.30
2018-06-21T13:02:14.379Z,3.90
2018-06-21T13:04:42.994Z,4.10
2018-06-21T13:07:11.191Z,3.70
2018-06-21T13:09:50.659Z,3.97
2018-06-21T13:12:31.851Z,4.67
2018-06-21T13:15:00.115Z,4.63
2018-06-21T13:17:29.283Z,5.10
2018-06-21T13:19:58.259Z,4.50
2018-06-21T13:22:26.950Z,4.00
2018-06-21T13:24:55.166Z,7.33
2018-06-21T13:27:23.610Z,5.07
2018-06-21T13:29:52.489Z,3.93
2018-06-21T13:32:20.946Z,3.73
2018-06-21T13:34:49.560Z,4.00
2018-06-21T13:37:17.836Z,4.27
2018-06-21T13:39:46.169Z,4.77
2018-06-21T13:42:14.495Z,5.00
2018-06-21T13:44:43.022Z,4.63
2018-06-21T13:47:11.248Z,4.80
2018-06-21T13:49:39.442Z,4.07
2018-06-21T13:52:07.749Z,4.50
2018-06-21T13:54:36.000Z,4.60
2018-06-21T13:57:04.278Z,4.47
2018-06-21T13:59:32.507Z,4.10
2018-06-21T14:02:00.706Z,4.00
2018-06-21T14:04:28.966Z,10.00
2018-06-21T14:06:57.164Z,5.57
2018-06-21T14:09:25.448Z,5.00
2018-06-21T14:11:53.713Z,4.13
2018-06-21T14:14:21.946Z,4.50
2018-06-21T14:16:50.162Z,4.03
2018-06-21T14:19:18.415Z,4.03
2018-06-21T14:21:46.614Z,3.90
2018-06-21T14:24:15.473Z,4.10
2018-06-21T14:26:44.195Z,3.93
2018-06-21T14:29:12.502Z,5.00
2018-06-21T14:31:40.691Z,4.40
2018-06-21T14:34:08.912Z,4.50
2018-06-21T14:36:37.213Z,4.90
2018-06-21T14:39:07.449Z,3.87
2018-06-21T14:41:35.691Z,4.63
2018-06-21T14:44:03.926Z,4.50
2018-06-21T14:46:32.230Z,4.50
2018-06-21T14:49:00.577Z,3.83
2018-06-21T14:51:28.757Z,4.63
2018-06-21T14:53:57.069Z,4.33
2018-06-21T14:56:25.306Z,4.40
2018-06-21T14:58:53.649Z,4.70
2018-06-21T15:01:22.267Z,4.10
2018-06-21T15:03:50.483Z,4.40
2018-06-21T15:06:18.826Z,4.93
2018-06-21T15:08:47.129Z,4.63
2018-06-21T15:11:15.337Z,4.23
2018-06-21T15:13:47.601Z,3.57
2018-06-21T15:16:17.305Z,4.00
2018-06-21T15:18:45.633Z,3.77
2018-06-21T15:21:14.151Z,3.60
2018-06-21T15:23:43.137Z,3.63
2018-06-21T15:26:11.371Z,3.83
2018-06-21T15:28:39.312Z,3.70
2018-06-21T15:31:07.530Z,3.63
2018-06-21T15:33:35.896Z,4.17
2018-06-21T15:36:04.458Z,4.17
2018-06-21T15:38:32.690Z,4.10
2018-06-21T15:41:00.947Z,4.23
2018-06-21T15:43:29.187Z,4.20
2018-06-21T15:45:57.465Z,4.37
2018-06-21T15:48:25.671Z,4.10
2018-06-21T15:50:53.877Z,4.70
2018-06-21T15:53:22.126Z,4.53
2018-06-21T15:55:50.358Z,4.47
2018-06-21T15:58:18.609Z,4.73
2018-06-21T16:00:46.862Z,4.70
2018-06-21T16:03:15.112Z,3.97
2018-06-21T16:05:43.326Z,3.87
2018-06-21T16:08:11.566Z,6.50
2018-06-21T16:10:39.867Z,4.40
2018-06-21T16:13:08.110Z,5.80
2018-06-21T16:15:36.310Z,4.73
2018-06-21T16:18:05.099Z,4.07
2018-06-21T16:20:33.326Z,4.57
2018-06-21T16:23:01.497Z,4.40
2018-06-21T16:25:29.725Z,4.90
2018-06-21T16:27:57.988Z,3.50
2018-06-21T16:30:26.135Z,3.60
2018-06-21T16:32:54.378Z,4.37
2018-06-21T16:35:22.582Z,3.70
2018-06-21T16:37:50.810Z,3.77
2018-06-21T16:40:19.204Z,3.60
2018-06-21T16:42:47.471Z,3.40
2018-06-21T16:45:15.758Z,3.07
2018-06-21T16:47:44.009Z,3.23
2018-06-21T16:50:12.270Z,3.53
2018-06-21T16:52:40.502Z,3.37
2018-06-21T16:55:08.691Z,3.70
2018-06-21T16:57:36.911Z,3.70
2018-06-21T17:00:05.142Z,3.80
2018-06-21T17:02:33.322Z,2.73
2018-06-21T17:05:01.504Z,3.80
2018-06-21T17:07:29.699Z,2.93
2018-06-21T17:09:58.270Z,2.33
2018-06-21T17:12:26.749Z,3.30
2018-06-21T17:14:54.968Z,4.60
2018-06-21T17:17:23.259Z,3.37
2018-06-21T17:19:51.458Z,3.63
2018-06-21T17:22:19.655Z,3.57
2018-06-21T17:24:47.820Z,3.70
2018-06-21T17:27:16.086Z,4.33
2018-06-21T17:29:44.308Z,3.93
2018-06-21T17:32:12.551Z,4.90
2018-06-21T17:34:40.759Z,4.27
2018-06-21T17:37:09.079Z,3.53
2018-06-21T17:39:37.324Z,3.80
2018-06-21T17:42:05.510Z,4.30
2018-06-21T17:44:33.705Z,4.20
2018-06-21T17:47:02.258Z,3.93
2018-06-21T17:49:30.481Z,4.10
2018-06-21T17:51:58.703Z,4.47
2018-06-21T17:54:26.938Z,3.97
2018-06-21T17:56:55.166Z,3.83
2018-06-21T17:59:23.330Z,3.83
2018-06-21T18:01:51.550Z,3.50
2018-06-21T18:04:19.722Z,3.30
2018-06-21T18:06:47.911Z,3.50
2018-06-21T18:09:16.073Z,4.03
2018-06-21T18:11:44.254Z,4.10
2018-06-21T18:14:12.421Z,3.17
2018-06-21T18:16:40.681Z,3.50
2018-06-21T18:19:08.862Z,3.73
2018-06-21T18:21:37.131Z,3.33
2018-06-21T18:24:05.393Z,4.03
2018-06-21T18:26:33.592Z,2.97
2018-06-21T18:29:01.920Z,3.50
2018-06-21T18:31:30.125Z,2.80
2018-06-21T18:33:58.332Z,2.30
2018-06-21T18:36:27.034Z,2.50
2018-06-21T18:38:55.274Z,2.33
2018-06-21T18:41:23.475Z,2.30
2018-06-21T18:43:51.745Z,2.63
2018-06-21T18:46:20.403Z,2.33
2018-06-21T18:48:48.635Z,2.70
2018-06-21T18:51:16.578Z,2.37
2018-06-21T18:53:44.754Z,3.20
2018-06-21T18:56:12.980Z,2.47
2018-06-21T18:58:41.211Z,2.07
2018-06-21T19:01:09.463Z,2.60
2018-06-21T19:03:37.686Z,3.23
2018-06-21T19:06:10.114Z,3.00
2018-06-21T19:08:43.868Z,4.20
2018-06-21T19:11:17.570Z,4.00
2018-06-21T19:13:45.783Z,4.40
2018-06-21T19:16:13.979Z,4.80
2018-06-21T19:18:42.208Z,5.30
2018-06-21T19:21:10.433Z,4.80
2018-06-21T19:23:38.705Z,5.67
2018-06-21T19:26:06.940Z,5.67
2018-06-21T19:28:35.151Z,5.33
2018-06-21T19:31:03.466Z,5.40
2018-06-21T19:33:31.711Z,5.70
2018-06-21T19:35:59.943Z,5.90
2018-06-21T19:38:28.176Z,5.77
2018-06-21T19:40:56.434Z,5.80
2018-06-21T19:43:24.651Z,5.50
2018-06-21T19:45:52.851Z,4.93
2018-06-21T19:48:21.944Z,5.77
2018-06-21T19:50:50.784Z,5.20
2018-06-21T19:53:19.014Z,6.13
2018-06-21T19:55:47.199Z,5.03
2018-06-21T19:58:15.463Z,5.20
2018-06-21T20:00:43.653Z,5.80
2018-06-21T20:03:11.871Z,5.37
2018-06-21T20:05:40.024Z,4.93
2018-06-21T20:08:08.211Z,4.80
2018-06-21T20:10:36.372Z,3.90
2018-06-21T20:13:04.756Z,3.90
2018-06-21T20:15:50.147Z,4.33
2018-06-21T20:18:18.393Z,4.20
2018-06-21T20:20:46.567Z,3.50
2018-06-21T20:23:14.767Z,2.80
2018-06-21T20:25:42.935Z,3.20
2018-06-21T20:28:11.219Z,2.70
2018-06-21T20:30:39.542Z,2.67
2018-06-21T20:33:07.855Z,2.40
2018-06-21T20:35:36.234Z,2.33
2018-06-21T20:38:04.435Z,2.60
2018-06-21T20:40:32.679Z,2.60
2018-06-21T20:43:00.891Z,2.30
2018-06-21T20:45:29.122Z,1.93
2018-06-21T20:47:57.302Z,1.53
2018-06-21T20:50:25.623Z,1.87
2018-06-21T20:52:53.958Z,1.90
2018-06-21T20:55:22.177Z,2.20
2018-06-21T20:57:50.433Z,2.20
2018-06-21T21:00:18.670Z,2.70
2018-06-21T21:02:46.863Z,2.40
2018-06-21T21:05:16.937Z,3.13
2018-06-21T21:07:46.316Z,3.67
2018-06-21T21:10:15.778Z,2.83
2018-06-21T21:12:44.065Z,2.70
2018-06-21T21:15:13.249Z,3.57
2018-06-21T21:17:41.516Z,2.60
2018-06-21T21:20:10.010Z,3.50
2018-06-21T21:22:39.196Z,2.87
2018-06-21T21:25:07.476Z,2.73
2018-06-21T21:27:35.670Z,2.60
2018-06-21T21:30:05.412Z,1.80
2018-06-21T21:32:33.623Z,1.90
2018-06-21T21:35:01.870Z,2.40
2018-06-21T21:37:30.213Z,1.80
2018-06-21T21:40:00.529Z,2.20
2018-06-21T21:42:29.550Z,1.90
2018-06-21T21:44:57.849Z,1.77
2018-06-21T21:47:26.113Z,1.63
2018-06-21T21:49:54.857Z,1.43
2018-06-21T21:52:23.356Z,1.63
2018-06-21T21:54:51.643Z,1.43
2018-06-21T21:57:20.038Z,1.57
2018-06-21T21:59:49.035Z,1.63
2018-06-21T22:02:17.719Z,2.00
2018-06-21T22:04:46.393Z,1.83
2018-06-21T22:07:14.844Z,1.50
2018-06-21T22:09:43.320Z,2.00
2018-06-21T22:12:11.525Z,6.73
2018-06-21T22:14:39.823Z,2.00
2018-06-21T22:17:08.018Z,1.27
2018-06-21T22:19:36.230Z,1.60
2018-06-21T22:22:04.454Z,2.30
2018-06-21T22:24:32.698Z,1.83
2018-06-21T22:27:00.913Z,1.50
2018-06-21T22:29:29.127Z,1.80
2018-06-21T22:31:57.310Z,2.00
2018-06-21T22:34:26.527Z,1.37
2018-06-21T22:36:54.738Z,2.27
2018-06-21T22:39:23.969Z,1.53
2018-06-21T22:41:52.208Z,1.47
2018-06-21T22:44:20.422Z,1.17
2018-06-21T22:46:48.640Z,1.57
2018-06-21T22:49:16.842Z,1.40
2018-06-21T22:51:45.623Z,1.60
2018-06-21T22:54:13.840Z,2.83
2018-06-21T22:56:42.057Z,1.80
2018-06-21T22:59:10.255Z,1.60
2018-06-21T23:01:38.486Z,1.40
2018-06-21T23:04:06.693Z,1.40
2018-06-21T23:06:34.938Z,1.30
2018-06-21T23:09:03.296Z,2.63
2018-06-21T23:11:31.521Z,3.53
2018-06-21T23:13:59.757Z,3.30
2018-06-21T23:16:27.984Z,2.70
2018-06-21T23:19:07.363Z,1.40
2018-06-21T23:21:35.589Z,1.77
2018-06-21T23:24:03.879Z,1.53
2018-06-21T23:26:32.135Z,1.43
2018-06-21T23:29:00.330Z,2.70
2018-06-21T23:31:28.555Z,1.93
2018-06-21T23:33:56.786Z,1.90
2018-06-21T23:36:24.990Z,1.70
2018-06-21T23:38:53.214Z,1.50
2018-06-21T23:41:21.427Z,1.33
2018-06-21T23:46:23.477Z,1.67
2018-06-21T23:48:51.755Z,1.77
2018-06-21T23:51:19.942Z,2.17
2018-06-21T23:53:48.171Z,1.73
2018-06-21T23:56:16.390Z,1.33
2018-06-21T23:58:44.626Z,1.47
